createdAt,value
2022-10-06T00:02:13.733Z,101043.81
2022-10-06T00:04:40.095Z,101046.81
2022-10-06T00:07:06.476Z,101042.41
2022-10-06T00:09:32.907Z,101051.06
2022-10-06T00:12:00.002Z,101052.16
2022-10-06T00:14:27.259Z,101049.13
2022-10-06T00:16:53.745Z,101057.53
2022-10-06T00:19:20.090Z,101061.59
2022-10-06T00:21:46.462Z,101059.94
2022-10-06T00:24:12.814Z,101060.53
2022-10-06T00:26:39.145Z,101067.19
2022-10-06T00:29:05.472Z,101068.19
2022-10-06T00:31:31.871Z,101071.66
2022-10-06T00:33:58.206Z,101062.81
2022-10-06T00:36:24.565Z,101066.44
2022-10-06T00:38:51.017Z,101068.38
2022-10-06T00:41:18.026Z,101072.75
2022-10-06T00:43:59.061Z,101075.25
2022-10-06T00:46:37.963Z,101068.75
2022-10-06T00:49:32.686Z,101056.09
2022-10-06T00:52:04.308Z,101061.84
2022-10-06T00:54:32.689Z,101060.97
2022-10-06T00:56:59.450Z,101057.50
2022-10-06T00:59:25.893Z,101049.81
2022-10-06T01:02:08.953Z,101050.69
2022-10-06T01:04:38.061Z,101057.94
2022-10-06T01:07:04.873Z,101053.84
2022-10-06T01:09:31.587Z,101060.75
2022-10-06T01:12:01.389Z,101065.78
2022-10-06T01:14:28.429Z,101063.63
2022-10-06T01:17:02.654Z,101058.81
2022-10-06T01:19:47.470Z,101064.94
2022-10-06T01:22:16.611Z,101071.66
2022-10-06T01:24:46.654Z,101068.78
2022-10-06T01:27:15.213Z,101066.97
2022-10-06T01:29:41.721Z,101059.00
2022-10-06T01:32:08.386Z,101068.28
2022-10-06T01:34:34.938Z,101061.38
2022-10-06T01:37:01.261Z,101069.44
2022-10-06T01:39:27.590Z,101069.94
2022-10-06T01:41:53.880Z,101070.88
2022-10-06T01:44:20.372Z,101077.97
2022-10-06T01:46:46.706Z,101079.47
2022-10-06T01:49:13.035Z,101078.28
2022-10-06T01:51:39.353Z,101085.47
2022-10-06T01:54:05.699Z,101091.59
2022-10-06T01:56:32.022Z,101095.69
2022-10-06T01:58:58.366Z,101099.44
2022-10-06T02:01:24.754Z,101096.81
2022-10-06T02:03:51.075Z,101098.38
2022-10-06T02:06:17.548Z,101097.34
2022-10-06T02:08:43.933Z,101098.06
2022-10-06T02:11:11.962Z,101100.03
2022-10-06T02:13:39.057Z,101103.28
2022-10-06T02:16:07.898Z,101109.19
2022-10-06T02:18:35.522Z,101109.69
2022-10-06T02:21:03.207Z,101124.38
2022-10-06T02:23:30.050Z,101119.69
2022-10-06T02:25:59.856Z,101120.13
2022-10-06T02:28:26.914Z,101129.28
2022-10-06T02:30:53.497Z,101134.38
2022-10-06T02:33:19.873Z,101137.88
2022-10-06T02:35:47.061Z,101139.44
2022-10-06T02:38:13.393Z,101136.41
2022-10-06T02:40:39.690Z,101157.66
2022-10-06T02:43:06.020Z,101169.69
2022-10-06T02:45:32.339Z,101170.78
2022-10-06T02:47:58.662Z,101182.00
2022-10-06T02:50:25.018Z,101191.19
2022-10-06T02:52:51.353Z,101204.19
2022-10-06T02:55:17.823Z,101201.97
2022-10-06T02:57:44.244Z,101223.53
2022-10-06T03:00:11.301Z,101232.63
2022-10-06T03:02:37.693Z,101239.59
2022-10-06T03:05:04.538Z,101237.69
2022-10-06T03:07:30.855Z,101247.72
2022-10-06T03:09:57.265Z,101249.59
2022-10-06T03:12:23.899Z,101254.56
2022-10-06T03:14:50.197Z,101248.91
2022-10-06T03:17:16.552Z,101258.59
2022-10-06T03:19:42.864Z,101255.97
2022-10-06T03:22:10.459Z,101263.81
2022-10-06T03:24:36.830Z,101273.25
2022-10-06T03:27:04.188Z,101286.50
2022-10-06T03:29:31.081Z,101296.53
2022-10-06T03:31:58.413Z,101318.22
2022-10-06T03:34:24.930Z,101317.59
2022-10-06T03:36:51.577Z,101323.44
2022-10-06T03:39:17.897Z,101326.78
2022-10-06T03:41:47.284Z,101330.19
2022-10-06T03:44:13.636Z,101348.97
2022-10-06T03:46:40.063Z,101338.28
2022-10-06T03:49:06.766Z,101353.78
2022-10-06T03:51:38.830Z,101358.84
2022-10-06T03:54:05.342Z,101375.78
2022-10-06T03:56:36.991Z,101386.91
2022-10-06T03:59:14.061Z,101381.75
2022-10-06T04:01:45.605Z,101403.59
2022-10-06T04:04:13.206Z,101400.72
2022-10-06T04:06:42.498Z,101401.94
2022-10-06T04:09:15.319Z,101409.31
2022-10-06T04:11:43.883Z,101418.97
2022-10-06T04:14:12.990Z,101428.19
2022-10-06T04:16:41.962Z,101437.31
2022-10-06T04:19:10.087Z,101447.59
2022-10-06T04:21:38.107Z,101456.88
2022-10-06T04:24:05.871Z,101467.09
2022-10-06T04:26:36.239Z,101467.97
2022-10-06T04:29:02.631Z,101471.31
2022-10-06T04:31:32.790Z,101481.69
2022-10-06T04:34:01.250Z,101489.63
2022-10-06T04:36:29.894Z,101490.72
2022-10-06T04:39:02.621Z,101493.66
2022-10-06T04:41:34.820Z,101495.47
2022-10-06T04:44:02.323Z,101491.09
2022-10-06T04:46:42.645Z,101496.63
2022-10-06T04:49:13.345Z,101499.66
2022-10-06T04:51:44.376Z,101508.81
2022-10-06T04:54:10.829Z,101521.72
2022-10-06T04:56:37.178Z,101520.66
2022-10-06T04:59:03.708Z,101526.19
2022-10-06T05:01:32.285Z,101531.59
2022-10-06T05:04:00.926Z,101536.59
2022-10-06T05:06:33.143Z,101524.91
2022-10-06T05:09:02.272Z,101545.66
2022-10-06T05:11:29.467Z,101554.75
2022-10-06T05:13:58.680Z,101557.63
2022-10-06T05:16:28.077Z,101575.38
2022-10-06T05:18:54.717Z,101580.53
2022-10-06T05:21:25.831Z,101582.41
2022-10-06T05:23:52.820Z,101592.84
2022-10-06T05:26:22.624Z,101597.16
2022-10-06T05:28:49.187Z,101608.53
2022-10-06T05:31:21.289Z,101618.69
2022-10-06T05:33:48.026Z,101628.91
2022-10-06T05:36:18.834Z,101622.94
2022-10-06T05:38:45.788Z,101637.53
2022-10-06T05:41:26.481Z,101651.25
2022-10-06T05:43:53.284Z,101652.97
2022-10-06T05:46:23.721Z,101658.38
2022-10-06T05:48:56.659Z,101665.38
2022-10-06T05:51:30.992Z,101676.78
2022-10-06T05:53:58.867Z,101684.56
2022-10-06T05:56:27.700Z,101676.97
2022-10-06T05:58:55.469Z,101689.22
2022-10-06T06:01:27.785Z,101696.44
2022-10-06T06:04:00.168Z,101705.31
2022-10-06T06:06:35.606Z,101718.28
2022-10-06T06:09:06.804Z,101721.22
2022-10-06T06:11:34.943Z,101731.19
2022-10-06T06:14:04.081Z,101733.94
2022-10-06T06:16:31.172Z,101739.25
2022-10-06T06:18:58.096Z,101747.38
2022-10-06T06:21:25.982Z,101743.66
2022-10-06T06:23:52.832Z,101749.06
2022-10-06T06:26:23.488Z,101761.91
2022-10-06T06:28:54.362Z,101756.41
2022-10-06T06:31:23.808Z,101767.00
2022-10-06T06:33:58.192Z,101766.88
2022-10-06T06:36:30.132Z,101773.50
2022-10-06T06:38:58.078Z,101776.03
2022-10-06T06:41:33.245Z,101778.94
2022-10-06T06:44:00.223Z,101780.41
2022-10-06T06:46:31.895Z,101778.84
2022-10-06T06:49:04.422Z,101790.06
2022-10-06T06:51:33.169Z,101793.97
2022-10-06T06:54:02.198Z,101806.59
2022-10-06T06:56:29.718Z,101802.69
2022-10-06T06:58:56.021Z,101812.66
2022-10-06T07:01:23.082Z,101818.06
2022-10-06T07:03:59.122Z,101817.72
2022-10-06T07:06:28.735Z,101825.97
2022-10-06T07:08:57.083Z,101825.09
2022-10-06T07:11:24.629Z,101829.31
2022-10-06T07:13:57.674Z,101835.28
2022-10-06T07:16:43.850Z,101839.53
2022-10-06T07:19:30.617Z,101840.66
2022-10-06T07:22:18.839Z,101849.06
2022-10-06T07:25:04.756Z,101857.31
2022-10-06T07:27:34.226Z,101859.97
2022-10-06T07:30:00.566Z,101868.59
2022-10-06T07:32:30.806Z,101865.81
2022-10-06T07:34:58.666Z,101870.97
2022-10-06T07:37:25.718Z,101880.41
2022-10-06T07:39:52.035Z,101879.34
2022-10-06T07:42:18.701Z,101886.13
2022-10-06T07:45:08.630Z,101895.56
2022-10-06T07:47:38.293Z,101902.31
2022-10-06T07:50:08.449Z,101902.09
2022-10-06T07:52:39.026Z,101902.00
2022-10-06T07:55:05.995Z,101902.94
2022-10-06T07:57:35.213Z,101917.63
2022-10-06T08:00:05.453Z,101920.94
2022-10-06T08:02:35.469Z,101916.81
2022-10-06T08:05:02.858Z,101929.91
2022-10-06T08:07:29.200Z,101930.38
2022-10-06T08:09:55.532Z,101941.63
2022-10-06T08:12:34.315Z,101951.38
2022-10-06T08:15:06.030Z,101947.63
2022-10-06T08:17:35.329Z,101961.06
2022-10-06T08:20:01.900Z,101956.69
2022-10-06T08:22:29.994Z,101962.31
2022-10-06T08:25:05.920Z,101969.53
2022-10-06T08:27:34.742Z,101974.00
2022-10-06T08:30:01.428Z,101972.28
2022-10-06T08:32:27.858Z,101976.91
2022-10-06T08:34:54.545Z,101982.88
2022-10-06T08:37:23.654Z,101988.03
2022-10-06T08:39:53.734Z,101991.13
2022-10-06T08:42:42.512Z,102001.13
2022-10-06T08:45:24.019Z,102005.94
2022-10-06T08:47:53.695Z,102014.25
2022-10-06T08:50:21.896Z,102010.69
2022-10-06T08:52:56.942Z,102015.84
2022-10-06T08:55:34.320Z,102024.13
2022-10-06T08:58:30.189Z,102027.47
2022-10-06T09:01:23.346Z,102040.34
2022-10-06T09:03:52.493Z,102046.09
2022-10-06T09:07:09.195Z,102046.22
2022-10-06T09:09:56.988Z,102063.91
2022-10-06T09:12:32.796Z,102071.94
2022-10-06T09:15:14.730Z,102062.75
2022-10-06T09:17:56.514Z,102069.06
2022-10-06T09:20:42.489Z,102061.81
2022-10-06T09:23:15.607Z,102078.59
2022-10-06T09:25:42.038Z,102067.09
2022-10-06T09:28:15.662Z,102082.59
2022-10-06T09:30:43.243Z,102072.69
2022-10-06T09:33:19.634Z,102081.81
2022-10-06T09:36:09.133Z,102077.44
2022-10-06T09:38:53.915Z,102088.13
2022-10-06T09:41:24.749Z,102092.50
2022-10-06T09:44:06.176Z,102101.34
2022-10-06T09:46:35.005Z,102100.22
2022-10-06T09:49:17.389Z,102107.47
2022-10-06T09:52:16.073Z,102114.38
2022-10-06T09:54:43.746Z,102111.72
2022-10-06T09:57:28.107Z,102115.16
2022-10-06T09:59:58.004Z,102124.13
2022-10-06T10:02:39.491Z,102120.03
2022-10-06T10:05:18.690Z,102126.00
2022-10-06T10:07:48.032Z,102138.88
2022-10-06T10:10:19.464Z,102139.22
2022-10-06T10:12:53.762Z,102144.06
2022-10-06T10:15:20.031Z,102142.34
2022-10-06T10:17:52.738Z,102153.81
2022-10-06T10:20:25.019Z,102150.03
2022-10-06T10:22:52.969Z,102153.63
2022-10-06T10:26:14.060Z,102157.97
2022-10-06T10:28:51.980Z,102167.53
2022-10-06T10:31:31.271Z,102164.41
2022-10-06T10:34:24.033Z,102174.09
2022-10-06T10:36:57.494Z,102172.03
2022-10-06T10:39:38.616Z,102168.56
2022-10-06T10:42:14.480Z,102159.81
2022-10-06T10:44:53.503Z,102174.19
2022-10-06T10:47:28.132Z,102174.50
2022-10-06T10:50:08.699Z,102177.28
2022-10-06T10:52:41.613Z,102175.69
2022-10-06T10:55:39.561Z,102173.03
2022-10-06T10:58:31.905Z,102178.72
2022-10-06T11:01:07.868Z,102180.41
2022-10-06T11:03:34.262Z,102191.22
2022-10-06T11:06:06.778Z,102192.47
2022-10-06T11:09:01.399Z,102192.81
2022-10-06T11:11:37.789Z,102193.44
2022-10-06T11:14:26.224Z,102196.50
2022-10-06T11:16:58.316Z,102196.84
2022-10-06T11:19:47.397Z,102196.09
2022-10-06T11:22:41.671Z,102201.63
2022-10-06T11:25:27.540Z,102200.84
2022-10-06T11:28:05.415Z,102213.03
2022-10-06T11:30:36.844Z,102212.22
2022-10-06T11:33:40.891Z,102210.50
2022-10-06T11:36:15.368Z,102199.03
2022-10-06T11:38:47.434Z,102215.59
2022-10-06T11:41:28.061Z,102209.81
2022-10-06T11:44:12.856Z,102213.44
2022-10-06T11:46:49.779Z,102218.25
2022-10-06T11:49:28.485Z,102223.56
2022-10-06T11:52:14.783Z,102211.13
2022-10-06T11:54:50.003Z,102216.44
2022-10-06T11:57:25.021Z,102226.91
2022-10-06T12:00:17.307Z,102224.47
2022-10-06T12:02:46.290Z,102237.03
2022-10-06T12:05:55.395Z,102227.69
2022-10-06T12:08:02.692Z,102229.50
2022-10-06T12:10:28.963Z,102230.91
2022-10-06T12:13:21.195Z,102237.44
2022-10-06T12:19:21.796Z,102231.72
2022-10-06T12:22:30.882Z,102235.72
2022-10-06T12:25:06.768Z,102241.50
2022-10-06T12:27:59.221Z,102236.88
2022-10-06T12:31:02.361Z,102237.56
2022-10-06T12:33:38.149Z,102237.09
2022-10-06T12:36:15.221Z,102229.50
2022-10-06T12:39:00.161Z,102223.16
2022-10-06T12:41:58.851Z,102234.22
2022-10-06T12:44:37.259Z,102236.44
2022-10-06T12:47:32.543Z,102230.91
2022-10-06T12:50:06.960Z,102239.84
2022-10-06T12:52:46.220Z,102235.16
2022-10-06T12:55:50.275Z,102239.38
2022-10-06T12:58:28.933Z,102237.31
2022-10-06T13:01:09.397Z,102244.31
2022-10-06T13:03:37.287Z,102244.50
2022-10-06T13:06:06.840Z,102247.81
2022-10-06T13:08:38.060Z,102249.94
2022-10-06T13:11:16.676Z,102253.31
2022-10-06T13:13:58.561Z,102252.47
2022-10-06T13:16:26.152Z,102252.00
2022-10-06T13:18:59.078Z,102260.19
2022-10-06T13:21:26.040Z,102254.75
2022-10-06T13:23:52.687Z,102258.34
2022-10-06T13:26:32.215Z,102264.47
2022-10-06T13:28:59.994Z,102264.13
2022-10-06T13:31:35.108Z,102273.47
2022-10-06T13:34:09.772Z,102262.84
2022-10-06T13:36:38.852Z,102268.75
2022-10-06T13:39:06.793Z,102266.56
2022-10-06T13:41:37.999Z,102258.97
2022-10-06T13:44:14.175Z,102266.69
2022-10-06T13:46:53.062Z,102272.88
2022-10-06T13:49:25.994Z,102263.91
2022-10-06T13:51:54.453Z,102277.50
2022-10-06T13:54:29.649Z,102271.63
2022-10-06T13:56:56.766Z,102277.97
2022-10-06T13:59:28.605Z,102269.31
2022-10-06T14:01:56.382Z,102277.63
2022-10-06T14:04:23.178Z,102275.44
2022-10-06T14:07:01.435Z,102279.69
2022-10-06T14:09:31.598Z,102288.44
2022-10-06T14:12:07.347Z,102282.72
2022-10-06T14:14:33.889Z,102282.38
2022-10-06T14:17:00.807Z,102282.25
2022-10-06T14:19:34.929Z,102282.25
2022-10-06T14:22:02.474Z,102285.00
2022-10-06T14:24:30.032Z,102287.78
2022-10-06T14:27:01.690Z,102295.50
2022-10-06T14:29:28.149Z,102296.19
2022-10-06T14:31:54.723Z,102293.44
2022-10-06T14:34:22.372Z,102297.25
2022-10-06T14:36:55.155Z,102295.88
2022-10-06T14:39:21.991Z,102299.88
2022-10-06T14:41:48.428Z,102302.38
2022-10-06T14:44:15.927Z,102300.31
2022-10-06T14:46:47.412Z,102296.16
2022-10-06T14:49:14.359Z,102295.56
2022-10-06T14:51:42.529Z,102303.09
2022-10-06T14:54:11.443Z,102299.38
2022-10-06T14:56:39.228Z,102299.28
2022-10-06T14:59:08.130Z,102298.50
2022-10-06T15:01:37.703Z,102296.50
2022-10-06T15:04:15.300Z,102290.03
2022-10-06T15:07:00.793Z,102290.28
2022-10-06T15:09:30.582Z,102292.81
2022-10-06T15:11:57.733Z,102292.97
2022-10-06T15:14:24.153Z,102292.84
2022-10-06T15:16:51.038Z,102298.72
2022-10-06T15:19:17.656Z,102292.63
2022-10-06T15:21:47.117Z,102295.84
2022-10-06T15:24:16.066Z,102299.19
2022-10-06T15:27:01.678Z,102301.03
2022-10-06T15:29:28.541Z,102299.88
2022-10-06T15:31:55.215Z,102303.44
2022-10-06T15:34:41.357Z,102307.03
2022-10-06T15:37:08.209Z,102304.72
2022-10-06T15:39:36.799Z,102310.03
2022-10-06T15:42:03.645Z,102307.03
2022-10-06T15:44:36.164Z,102311.41
2022-10-06T15:47:05.195Z,102311.63
2022-10-06T15:49:32.869Z,102308.28
2022-10-06T15:52:02.785Z,102312.53
2022-10-06T15:54:33.669Z,102321.16
2022-10-06T15:57:02.546Z,102311.81
2022-10-06T15:59:32.412Z,102315.06
2022-10-06T16:02:02.525Z,102312.34
2022-10-06T16:04:48.201Z,102311.44
2022-10-06T16:07:19.426Z,102314.91
2022-10-06T16:09:48.515Z,102318.78
2022-10-06T16:12:18.072Z,102318.22
2022-10-06T16:14:44.604Z,102314.22
2022-10-06T16:17:12.153Z,102311.59
2022-10-06T16:19:40.241Z,102317.59
2022-10-06T16:22:08.942Z,102314.22
2022-10-06T16:24:35.276Z,102315.13
2022-10-06T16:27:01.877Z,102318.22
2022-10-06T16:29:30.285Z,102319.41
2022-10-06T16:31:56.874Z,102319.84
2022-10-06T16:34:23.389Z,102319.06
2022-10-06T16:36:49.766Z,102320.19
2022-10-06T16:39:19.242Z,102314.44
2022-10-06T16:41:48.104Z,102310.56
2022-10-06T16:44:14.655Z,102317.59
2022-10-06T16:46:41.380Z,102324.81
2022-10-06T16:49:08.598Z,102318.19
2022-10-06T16:51:40.290Z,102331.59
2022-10-06T16:54:14.288Z,102329.19
2022-10-06T16:56:46.576Z,102327.81
2022-10-06T16:59:45.779Z,102326.78
2022-10-06T17:02:14.484Z,102324.16
2022-10-06T17:04:40.905Z,102323.19
2022-10-06T17:07:07.362Z,102325.69
2022-10-06T17:09:33.903Z,102325.06
2022-10-06T17:12:02.813Z,102325.44
2022-10-06T17:14:31.669Z,102329.06
2022-10-06T17:16:59.091Z,102332.97
2022-10-06T17:19:28.436Z,102322.50
2022-10-06T17:21:59.107Z,102326.09
2022-10-06T17:24:28.006Z,102315.25
2022-10-06T17:26:56.536Z,102323.25
2022-10-06T17:29:23.550Z,102326.16
2022-10-06T17:32:19.987Z,102323.06
2022-10-06T17:34:46.413Z,102318.75
2022-10-06T17:37:17.259Z,102324.25
2022-10-06T17:39:47.027Z,102332.66
2022-10-06T17:42:15.049Z,102333.50
2022-10-06T17:44:41.443Z,102320.09
2022-10-06T17:47:12.190Z,102319.94
2022-10-06T17:49:38.545Z,102318.34
2022-10-06T17:52:05.920Z,102315.09
2022-10-06T17:54:32.504Z,102319.50
2022-10-06T17:56:59.259Z,102326.59
2022-10-06T17:59:31.831Z,102327.59
2022-10-06T18:02:00.825Z,102330.03
2022-10-06T18:04:28.337Z,102329.03
2022-10-06T18:06:55.183Z,102330.03
2022-10-06T18:09:22.550Z,102329.22
2022-10-06T18:11:54.559Z,102328.56
2022-10-06T18:14:22.734Z,102326.13
2022-10-06T18:16:56.182Z,102333.06
2022-10-06T18:19:26.363Z,102329.03
2022-10-06T18:21:54.739Z,102325.16
2022-10-06T18:24:23.852Z,102321.91
2022-10-06T18:26:52.463Z,102323.88
2022-10-06T18:29:21.967Z,102331.25
2022-10-06T18:31:50.306Z,102334.03
2022-10-06T18:37:04.430Z,102329.22
2022-10-06T18:39:31.989Z,102332.44
2022-10-06T18:42:02.371Z,102328.06
2022-10-06T18:44:47.544Z,102326.28
2022-10-06T18:47:32.156Z,102332.44
2022-10-06T18:49:58.546Z,102332.06
2022-10-06T18:52:24.875Z,102327.22
2022-10-06T18:54:51.175Z,102331.56
2022-10-06T18:57:17.617Z,102331.72
2022-10-06T18:59:44.442Z,102336.25
2022-10-06T19:02:11.322Z,102328.66
2022-10-06T19:04:39.210Z,102336.91
2022-10-06T19:07:05.632Z,102335.59
2022-10-06T19:09:31.940Z,102333.34
2022-10-06T19:11:58.811Z,102336.22
2022-10-06T19:14:27.372Z,102335.91
2022-10-06T19:17:06.553Z,102337.03
2022-10-06T19:19:33.978Z,102342.69
2022-10-06T19:22:02.613Z,102337.16
2022-10-06T19:24:32.802Z,102342.66
2022-10-06T19:26:59.721Z,102343.44
2022-10-06T19:29:26.949Z,102333.25
2022-10-06T19:31:56.704Z,102341.16
2022-10-06T19:34:25.020Z,102342.13
2022-10-06T19:36:55.073Z,102344.53
2022-10-06T19:39:24.705Z,102354.56
2022-10-06T19:42:10.333Z,102345.50
2022-10-06T19:44:42.760Z,102349.34
2022-10-06T19:47:14.548Z,102353.56
2022-10-06T19:49:41.966Z,102359.81
2022-10-06T19:52:09.957Z,102363.16
2022-10-06T19:54:37.129Z,102365.56
2022-10-06T19:57:05.600Z,102357.72
2022-10-06T19:59:33.002Z,102354.16
2022-10-06T20:01:59.350Z,102352.28
2022-10-06T20:04:25.862Z,102359.50
2022-10-06T20:06:52.558Z,102357.97
2022-10-06T20:09:22.172Z,102359.28
2022-10-06T20:11:50.272Z,102358.16
2022-10-06T20:14:21.090Z,102358.97
2022-10-06T20:16:50.811Z,102361.47
2022-10-06T20:19:18.528Z,102370.16
2022-10-06T20:21:45.400Z,102369.41
2022-10-06T20:24:22.868Z,102365.31
2022-10-06T20:26:50.918Z,102369.50
2022-10-06T20:29:23.226Z,102363.91
2022-10-06T20:31:52.301Z,102361.09
2022-10-06T20:34:21.880Z,102368.38
2022-10-06T20:36:53.119Z,102367.75
2022-10-06T20:39:41.059Z,102375.22
2022-10-06T20:42:12.242Z,102382.34
2022-10-06T20:44:42.005Z,102380.69
2022-10-06T20:47:08.912Z,102373.78
2022-10-06T20:49:35.284Z,102385.28
2022-10-06T20:52:02.719Z,102373.16
2022-10-06T20:54:34.898Z,102375.22
2022-10-06T20:57:03.932Z,102375.72
2022-10-06T20:59:31.582Z,102373.91
2022-10-06T21:02:00.078Z,102373.91
2022-10-06T21:04:27.556Z,102373.91
2022-10-06T21:06:53.994Z,102381.97
2022-10-06T21:09:20.551Z,102381.97
2022-10-06T21:11:47.695Z,102374.38
2022-10-06T21:14:14.632Z,102374.19
2022-10-06T21:16:45.394Z,102380.28
2022-10-06T21:19:14.498Z,102374.00
2022-10-06T21:21:42.297Z,102374.44
2022-10-06T21:24:08.895Z,102373.00
2022-10-06T21:26:35.781Z,102376.47
2022-10-06T21:29:03.072Z,102370.06
2022-10-06T21:31:29.592Z,102371.00
2022-10-06T21:33:56.325Z,102375.00
2022-10-06T21:36:25.475Z,102359.63
2022-10-06T21:38:57.698Z,102360.13
2022-10-06T21:41:30.434Z,102355.97
2022-10-06T21:44:03.465Z,102353.72
2022-10-06T21:46:35.542Z,102348.56
2022-10-06T21:49:04.056Z,102354.91
2022-10-06T21:51:31.760Z,102357.84
2022-10-06T21:53:59.707Z,102346.25
2022-10-06T21:56:27.900Z,102349.00
2022-10-06T21:58:55.837Z,102342.28
2022-10-06T22:01:25.212Z,102349.16
2022-10-06T22:03:51.845Z,102359.63
2022-10-06T22:06:19.751Z,102347.47
2022-10-06T22:08:46.970Z,102356.00
2022-10-06T22:11:18.233Z,102347.78
2022-10-06T22:13:48.048Z,102350.63
2022-10-06T22:16:18.910Z,102354.50
2022-10-06T22:18:46.140Z,102346.38
2022-10-06T22:21:13.892Z,102344.56
2022-10-06T22:23:45.439Z,102343.88
2022-10-06T22:26:13.506Z,102344.38
2022-10-06T22:28:45.127Z,102340.34
2022-10-06T22:31:12.059Z,102341.56
2022-10-06T22:33:40.002Z,102348.47
2022-10-06T22:36:07.387Z,102338.53
2022-10-06T22:38:34.735Z,102345.81
2022-10-06T22:41:02.680Z,102336.31
2022-10-06T22:43:29.648Z,102341.47
2022-10-06T22:45:57.541Z,102333.59
2022-10-06T22:48:24.230Z,102332.34
2022-10-06T22:50:51.030Z,102336.94
2022-10-06T22:53:19.452Z,102331.88
2022-10-06T22:55:46.552Z,102347.47
2022-10-06T22:58:13.655Z,102340.78
2022-10-06T23:00:40.770Z,102336.31
2022-10-06T23:03:07.996Z,102329.81
2022-10-06T23:05:35.303Z,102329.34
2022-10-06T23:08:03.136Z,102325.78
2022-10-06T23:10:30.463Z,102324.94
2022-10-06T23:12:58.262Z,102321.03
2022-10-06T23:15:25.664Z,102314.41
2022-10-06T23:17:52.479Z,102318.78
2022-10-06T23:20:19.770Z,102330.34
2022-10-06T23:22:46.213Z,102321.94
2022-10-06T23:25:12.836Z,102325.38
2022-10-06T23:27:39.317Z,102322.72
2022-10-06T23:30:06.676Z,102322.72
2022-10-06T23:32:33.180Z,102317.09
2022-10-06T23:34:59.529Z,102320.06
2022-10-06T23:37:25.951Z,102325.53
2022-10-06T23:39:52.691Z,102321.19
2022-10-06T23:42:19.111Z,102326.66
2022-10-06T23:44:45.512Z,102325.38
2022-10-06T23:47:11.859Z,102336.63
2022-10-06T23:49:38.212Z,102331.94
2022-10-06T23:52:04.558Z,102329.50
2022-10-06T23:54:30.939Z,102327.06
2022-10-06T23:56:57.291Z,102323.13
2022-10-06T23:59:23.736Z,102327.88
